createdAt,value
2022-08-18T00:01:15.912Z,7.90
2022-08-18T00:03:57.249Z,7.75
2022-08-18T00:06:30.247Z,7.85
2022-08-18T00:09:00.987Z,8.00
2022-08-18T00:11:41.726Z,8.07
2022-08-18T00:14:19.343Z,7.30
2022-08-18T00:16:52.818Z,8.02
2022-08-18T00:19:47.093Z,8.35
2022-08-18T00:22:14.671Z,8.07
2022-08-18T00:24:48.163Z,7.80
2022-08-18T00:27:26.146Z,8.35
2022-08-18T00:29:59.133Z,7.57
2022-08-18T00:32:30.521Z,8.00
2022-08-18T00:35:00.119Z,7.88
2022-08-18T00:37:29.792Z,8.25
2022-08-18T00:39:59.433Z,7.90
2022-08-18T00:42:32.190Z,8.10
2022-08-18T00:45:03.459Z,7.47
2022-08-18T00:47:43.089Z,7.85
2022-08-18T00:50:15.745Z,8.27
2022-08-18T00:52:50.974Z,7.60
2022-08-18T00:55:20.791Z,7.90
2022-08-18T00:57:55.042Z,8.05
2022-08-18T01:00:24.674Z,7.90
2022-08-18T01:02:56.174Z,7.30
2022-08-18T01:05:28.345Z,7.20
2022-08-18T01:07:58.155Z,7.55
2022-08-18T01:10:27.847Z,7.43
2022-08-18T01:13:00.817Z,7.88
2022-08-18T01:15:30.769Z,7.25
2022-08-18T01:18:13.487Z,7.80
2022-08-18T01:20:58.729Z,7.57
2022-08-18T01:23:30.934Z,7.38
2022-08-18T01:26:01.017Z,8.18
2022-08-18T01:28:30.753Z,7.40
2022-08-18T01:31:00.956Z,6.90
2022-08-18T01:33:32.582Z,7.15
2022-08-18T01:36:03.716Z,7.38
2022-08-18T01:38:35.922Z,7.18
2022-08-18T01:41:26.758Z,7.38
2022-08-18T01:43:57.174Z,6.93
2022-08-18T01:46:26.829Z,7.75
2022-08-18T01:48:58.689Z,7.22
2022-08-18T01:51:38.860Z,7.35
2022-08-18T01:54:13.576Z,7.38
2022-08-18T01:56:43.567Z,7.55
2022-08-18T01:59:15.179Z,7.60
2022-08-18T02:01:48.816Z,7.45
2022-08-18T02:04:35.117Z,8.43
2022-08-18T02:07:06.838Z,7.90
2022-08-18T02:12:09.158Z,7.55
2022-08-18T02:14:39.084Z,7.60
2022-08-18T02:17:10.111Z,7.90
2022-08-18T02:19:40.941Z,8.10
2022-08-18T02:24:42.740Z,7.85
2022-08-18T02:27:12.691Z,7.95
2022-08-18T02:29:42.305Z,8.53
2022-08-18T02:32:12.003Z,8.90
2022-08-18T02:34:42.802Z,9.00
2022-08-18T02:39:48.002Z,9.35
2022-08-18T02:42:17.658Z,9.43
2022-08-18T02:44:47.293Z,9.70
2022-08-18T02:47:16.917Z,8.85
2022-08-18T02:49:46.483Z,8.38
2022-08-18T02:52:16.833Z,9.10
2022-08-18T02:54:49.519Z,7.90
2022-08-18T02:57:19.405Z,8.20
2022-08-18T02:59:49.018Z,8.50
2022-08-18T03:02:20.257Z,8.68
2022-08-18T03:04:51.369Z,7.70
2022-08-18T03:07:21.070Z,9.00
2022-08-18T03:09:53.382Z,8.68
2022-08-18T03:12:23.159Z,8.73
2022-08-18T03:14:52.787Z,8.77
2022-08-18T03:17:22.442Z,8.30
2022-08-18T03:19:52.803Z,8.07
2022-08-18T03:22:28.401Z,7.95
2022-08-18T03:25:03.232Z,7.82
2022-08-18T03:27:33.228Z,8.10
2022-08-18T03:30:03.826Z,8.40
2022-08-18T03:32:33.512Z,8.35
2022-08-18T03:35:03.098Z,8.60
2022-08-18T03:37:33.601Z,8.45
2022-08-18T03:40:06.611Z,8.57
2022-08-18T03:42:36.231Z,8.82
2022-08-18T03:45:13.273Z,8.60
2022-08-18T03:47:51.980Z,9.38
2022-08-18T03:50:25.636Z,9.00
2022-08-18T03:52:55.453Z,8.82
2022-08-18T03:55:27.797Z,8.50
2022-08-18T03:58:02.868Z,8.45
2022-08-18T04:00:33.755Z,8.90
2022-08-18T04:08:06.727Z,8.60
2022-08-18T04:10:38.949Z,9.55
2022-08-18T04:13:08.899Z,9.27
2022-08-18T04:15:39.519Z,8.63
2022-08-18T04:18:10.067Z,9.32
2022-08-18T04:20:59.440Z,9.68
2022-08-18T04:23:29.737Z,9.95
2022-08-18T04:26:19.072Z,9.43
2022-08-18T04:28:49.262Z,9.38
2022-08-18T04:31:23.733Z,9.48
2022-08-18T04:33:53.369Z,9.32
2022-08-18T04:36:22.990Z,9.20
2022-08-18T04:38:52.764Z,9.68
2022-08-18T04:41:29.547Z,9.77
2022-08-18T04:44:00.053Z,10.20
2022-08-18T04:46:29.845Z,10.45
2022-08-18T04:49:01.347Z,10.35
2022-08-18T04:52:36.483Z,11.05
2022-08-18T04:54:19.290Z,11.38
2022-08-18T04:56:51.454Z,11.45
2022-08-18T04:59:21.062Z,11.63
2022-08-18T05:01:50.803Z,11.95
2022-08-18T05:04:20.567Z,11.23
2022-08-18T05:06:50.306Z,11.20
2022-08-18T05:09:22.770Z,10.80
2022-08-18T05:11:55.578Z,11.85
2022-08-18T05:14:25.212Z,11.15
2022-08-18T05:16:54.778Z,11.13
2022-08-18T05:19:26.866Z,11.20
2022-08-18T05:21:59.575Z,10.52
2022-08-18T05:24:36.896Z,9.90
2022-08-18T05:27:10.212Z,10.20
2022-08-18T05:29:41.864Z,9.90
2022-08-18T05:32:30.512Z,10.90
2022-08-18T05:35:07.467Z,10.13
2022-08-18T05:37:40.715Z,10.30
2022-08-18T05:40:11.802Z,10.10
2022-08-18T05:42:44.192Z,10.57
2022-08-18T05:45:16.272Z,9.88
2022-08-18T05:47:45.912Z,10.18
2022-08-18T05:50:20.469Z,11.40
2022-08-18T05:52:53.626Z,10.45
2022-08-18T05:55:38.044Z,10.82
2022-08-18T05:58:13.685Z,10.60
2022-08-18T06:00:43.240Z,11.38
2022-08-18T06:03:16.256Z,10.02
2022-08-18T06:05:50.175Z,10.75
2022-08-18T06:08:20.079Z,9.45
2022-08-18T06:10:51.362Z,10.60
2022-08-18T06:13:23.528Z,9.95
2022-08-18T06:15:55.714Z,10.60
2022-08-18T06:18:40.399Z,9.82
2022-08-18T06:21:38.770Z,9.77
2022-08-18T06:24:13.061Z,9.65
2022-08-18T06:26:45.272Z,10.75
2022-08-18T06:29:25.805Z,10.30
2022-08-18T06:31:58.754Z,9.77
2022-08-18T06:34:32.868Z,9.50
2022-08-18T06:37:04.570Z,10.50
2022-08-18T06:39:38.643Z,9.57
2022-08-18T06:42:08.465Z,9.27
2022-08-18T06:44:42.635Z,9.18
2022-08-18T06:47:15.527Z,9.60
2022-08-18T06:49:48.460Z,8.68
2022-08-18T06:52:25.584Z,8.55
2022-08-18T06:54:55.782Z,8.07
2022-08-18T06:57:28.051Z,9.05
2022-08-18T07:00:01.557Z,8.48
2022-08-18T07:02:45.084Z,9.05
2022-08-18T07:05:22.940Z,8.95
2022-08-18T07:08:10.513Z,8.90
2022-08-18T07:10:41.262Z,9.20
2022-08-18T07:13:22.383Z,8.77
2022-08-18T07:15:54.700Z,7.72
2022-08-18T07:18:26.389Z,8.93
2022-08-18T07:20:57.374Z,8.23
2022-08-18T07:23:29.570Z,8.43
2022-08-18T07:26:08.749Z,9.10
2022-08-18T07:28:39.886Z,8.45
2022-08-18T07:31:17.751Z,9.25
2022-08-18T07:33:51.459Z,8.27
2022-08-18T07:36:21.670Z,9.35
2022-08-18T07:38:54.601Z,8.73
2022-08-18T07:41:26.172Z,9.73
2022-08-18T07:44:01.878Z,9.57
2022-08-18T07:46:36.061Z,8.70
2022-08-18T07:49:06.488Z,9.07
2022-08-18T07:51:44.063Z,8.75
2022-08-18T07:54:47.268Z,8.98
2022-08-18T07:57:11.003Z,8.50
2022-08-18T07:59:44.770Z,9.23
2022-08-18T08:02:27.521Z,8.95
2022-08-18T08:05:02.804Z,9.18
2022-08-18T08:07:33.191Z,9.60
2022-08-18T08:10:23.427Z,9.63
2022-08-18T08:13:06.105Z,9.60
2022-08-18T08:15:42.225Z,9.48
2022-08-18T08:18:17.361Z,9.68
2022-08-18T08:20:49.031Z,9.43
2022-08-18T08:23:24.697Z,9.68
2022-08-18T08:29:35.949Z,9.52
2022-08-18T08:32:07.170Z,9.60
2022-08-18T08:34:42.519Z,9.13
2022-08-18T08:37:23.865Z,9.32
2022-08-18T08:39:57.934Z,9.73
2022-08-18T08:42:34.500Z,10.30
2022-08-18T08:45:09.658Z,10.07
2022-08-18T08:47:41.397Z,10.05
2022-08-18T08:53:35.818Z,10.40
2022-08-18T08:56:09.227Z,9.65
2022-08-18T08:58:56.452Z,9.18
2022-08-18T09:01:29.632Z,10.00
2022-08-18T09:04:00.565Z,9.80
2022-08-18T09:09:16.571Z,8.95
2022-08-18T09:11:57.059Z,9.30
2022-08-18T09:14:50.116Z,9.38
2022-08-18T09:17:34.201Z,10.38
2022-08-18T09:20:27.653Z,9.50
2022-08-18T09:23:01.905Z,9.90
2022-08-18T09:25:52.180Z,8.50
2022-08-18T09:28:23.460Z,8.15
2022-08-18T09:31:12.541Z,9.30
2022-08-18T09:33:53.585Z,9.60
2022-08-18T09:36:30.205Z,9.57
2022-08-18T09:39:13.285Z,10.15
2022-08-18T09:41:52.579Z,9.52
2022-08-18T09:44:52.414Z,9.55
2022-08-18T09:47:51.817Z,9.00
2022-08-18T09:50:38.946Z,9.05
2022-08-18T09:53:19.838Z,9.07
2022-08-18T09:56:04.812Z,9.10
2022-08-18T09:58:58.765Z,8.82
2022-08-18T10:01:40.173Z,9.02
2022-08-18T10:04:48.510Z,9.02
2022-08-18T10:07:38.843Z,9.35
2022-08-18T10:13:18.253Z,9.88
2022-08-18T10:16:10.219Z,10.27
2022-08-18T10:18:56.081Z,10.55
2022-08-18T10:21:31.172Z,9.88
2022-08-18T10:24:29.840Z,10.07
2022-08-18T10:27:13.249Z,9.18
2022-08-18T10:29:56.793Z,8.85
2022-08-18T10:32:54.540Z,9.35
2022-08-18T10:35:59.114Z,9.68
2022-08-18T10:38:41.242Z,9.60
2022-08-18T10:41:27.219Z,9.68
2022-08-18T10:44:00.567Z,8.95
2022-08-18T10:46:33.151Z,9.55
2022-08-18T10:49:18.326Z,9.65
2022-08-18T10:51:59.971Z,9.25
2022-08-18T10:54:35.147Z,10.07
2022-08-18T10:57:23.152Z,9.35
2022-08-18T10:59:55.963Z,9.02
2022-08-18T11:02:41.171Z,9.52
2022-08-18T11:05:15.119Z,9.98
2022-08-18T11:07:46.883Z,9.05
2022-08-18T11:10:29.844Z,9.52
2022-08-18T11:13:07.516Z,10.40
2022-08-18T11:15:45.863Z,9.75
2022-08-18T11:18:24.283Z,10.07
2022-08-18T11:20:56.508Z,9.48
2022-08-18T11:23:26.317Z,9.55
2022-08-18T11:25:57.465Z,9.68
2022-08-18T11:28:31.761Z,10.05
2022-08-18T11:31:02.084Z,10.07
2022-08-18T11:33:37.671Z,9.52
2022-08-18T11:36:10.305Z,9.20
2022-08-18T11:38:42.078Z,9.38
2022-08-18T11:41:17.812Z,9.48
2022-08-18T11:43:48.023Z,10.55
2022-08-18T11:46:29.625Z,10.02
2022-08-18T11:49:01.379Z,10.15
2022-08-18T11:51:34.995Z,10.77
2022-08-18T11:54:05.803Z,10.07
2022-08-18T11:59:06.733Z,9.80
2022-08-18T12:01:42.140Z,8.82
2022-08-18T12:04:20.736Z,8.52
2022-08-18T12:07:06.191Z,9.05
2022-08-18T12:12:35.852Z,9.07
2022-08-18T12:15:10.493Z,8.45
2022-08-18T12:17:52.612Z,9.02
2022-08-18T12:20:22.825Z,9.10
2022-08-18T12:22:55.370Z,9.48
2022-08-18T12:25:25.963Z,9.82
2022-08-18T12:27:55.779Z,9.57
2022-08-18T12:30:25.419Z,9.75
2022-08-18T12:33:05.647Z,10.43
2022-08-18T12:35:41.796Z,11.00
2022-08-18T12:38:17.943Z,10.30
2022-08-18T12:40:47.862Z,10.77
2022-08-18T12:43:17.506Z,12.15
2022-08-18T12:45:47.124Z,10.45
2022-08-18T12:48:16.781Z,10.60
2022-08-18T12:50:54.369Z,10.43
2022-08-18T12:53:29.483Z,10.18
2022-08-18T12:56:10.665Z,10.50
2022-08-18T12:58:41.375Z,11.05
2022-08-18T13:01:11.077Z,10.93
2022-08-18T13:06:30.921Z,11.00
2022-08-18T13:09:03.175Z,10.50
2022-08-18T13:11:46.175Z,10.93
2022-08-18T13:14:16.150Z,10.93
2022-08-18T13:16:54.955Z,10.23
2022-08-18T13:19:24.764Z,11.00
2022-08-18T13:22:01.761Z,10.93
2022-08-18T13:24:35.798Z,11.27
2022-08-18T13:27:18.394Z,10.50
2022-08-18T13:29:52.736Z,10.85
2022-08-18T13:32:22.491Z,10.52
2022-08-18T13:34:52.135Z,9.65
2022-08-18T13:37:26.739Z,9.77
2022-08-18T13:40:00.280Z,9.68
2022-08-18T13:42:50.304Z,8.93
2022-08-18T13:45:26.221Z,9.13
2022-08-18T13:47:58.309Z,10.00
2022-08-18T13:50:29.822Z,10.00
2022-08-18T13:53:01.090Z,10.45
2022-08-18T13:55:33.360Z,10.23
2022-08-18T13:58:05.126Z,9.75
2022-08-18T14:00:47.466Z,10.85
2022-08-18T14:03:20.402Z,10.32
2022-08-18T14:06:02.962Z,10.13
2022-08-18T14:08:36.714Z,10.25
2022-08-18T14:11:12.601Z,9.57
2022-08-18T14:13:43.802Z,10.15
2022-08-18T14:16:18.779Z,9.68
2022-08-18T14:19:09.724Z,10.23
2022-08-18T14:21:53.670Z,9.70
2022-08-18T14:24:36.726Z,9.60
2022-08-18T14:27:09.248Z,9.73
2022-08-18T14:29:46.683Z,9.90
2022-08-18T14:32:18.059Z,10.25
2022-08-18T14:35:00.296Z,10.55
2022-08-18T14:37:30.783Z,10.98
2022-08-18T14:40:04.035Z,11.15
2022-08-18T14:45:34.084Z,11.85
2022-08-18T14:48:07.604Z,12.75
2022-08-18T14:50:48.962Z,12.05
2022-08-18T14:53:20.328Z,12.93
2022-08-18T14:55:52.182Z,12.32
2022-08-18T14:58:26.577Z,12.63
2022-08-18T15:00:56.587Z,12.63
2022-08-18T15:03:28.244Z,12.02
2022-08-18T15:06:04.489Z,12.45
2022-08-18T15:08:35.757Z,12.27
2022-08-18T15:13:46.575Z,10.52
2022-08-18T15:16:16.304Z,10.70
2022-08-18T15:18:46.320Z,9.43
2022-08-18T15:21:38.590Z,9.50
2022-08-18T15:24:21.697Z,9.73
2022-08-18T15:26:56.839Z,9.50
2022-08-18T15:29:30.965Z,9.00
2022-08-18T15:32:06.124Z,9.00
2022-08-18T15:34:46.392Z,8.10
2022-08-18T15:37:19.453Z,7.85
2022-08-18T15:39:51.823Z,7.32
2022-08-18T15:42:25.524Z,7.65
2022-08-18T15:44:59.715Z,7.38
2022-08-18T15:47:42.707Z,7.40
2022-08-18T15:50:25.295Z,7.55
2022-08-18T15:52:58.062Z,7.75
2022-08-18T15:55:29.823Z,7.10
2022-08-18T15:58:11.153Z,7.35
2022-08-18T16:00:46.666Z,7.88
2022-08-18T16:03:17.529Z,8.10
2022-08-18T16:05:52.504Z,6.97
2022-08-18T16:08:23.125Z,7.03
2022-08-18T16:10:52.871Z,7.65
2022-08-18T16:13:22.530Z,7.32
2022-08-18T16:15:54.683Z,7.57
2022-08-18T16:18:24.598Z,7.72
2022-08-18T16:20:56.618Z,7.28
2022-08-18T16:23:26.611Z,7.78
2022-08-18T16:25:56.362Z,8.27
2022-08-18T16:28:34.568Z,7.78
2022-08-18T16:31:07.773Z,8.02
2022-08-18T16:33:37.428Z,7.70
2022-08-18T16:36:08.006Z,7.13
2022-08-18T16:38:38.391Z,7.68
2022-08-18T16:41:13.578Z,7.53
2022-08-18T16:43:44.467Z,7.38
2022-08-18T16:46:18.008Z,7.13
2022-08-18T16:48:48.440Z,7.07
2022-08-18T16:51:18.872Z,7.15
2022-08-18T16:53:49.632Z,6.85
2022-08-18T16:56:21.361Z,6.82
2022-08-18T16:59:03.522Z,7.10
2022-08-18T17:01:50.789Z,7.00
2022-08-18T17:04:22.552Z,7.70
2022-08-18T17:06:52.595Z,7.50
2022-08-18T17:09:22.477Z,7.38
2022-08-18T17:11:52.521Z,7.67
2022-08-18T17:14:22.417Z,7.50
2022-08-18T17:16:55.412Z,7.90
2022-08-18T17:19:25.252Z,7.40
2022-08-18T17:21:54.872Z,7.50
2022-08-18T17:24:31.710Z,7.07
2022-08-18T17:27:21.191Z,8.38
2022-08-18T17:30:03.360Z,8.15
2022-08-18T17:32:40.567Z,7.68
2022-08-18T17:35:13.181Z,8.38
2022-08-18T17:37:43.798Z,8.85
2022-08-18T17:40:16.305Z,8.07
2022-08-18T17:42:47.225Z,8.90
2022-08-18T17:45:22.188Z,8.45
2022-08-18T17:47:57.539Z,8.23
2022-08-18T17:50:41.514Z,8.00
2022-08-18T17:53:11.874Z,8.23
2022-08-18T17:55:44.160Z,8.88
2022-08-18T17:58:18.648Z,8.90
2022-08-18T18:00:48.341Z,8.90
2022-08-18T18:03:20.543Z,8.55
2022-08-18T18:05:52.465Z,8.52
2022-08-18T18:08:22.184Z,9.85
2022-08-18T18:11:07.864Z,8.80
2022-08-18T18:13:40.477Z,8.07
2022-08-18T18:16:23.396Z,9.27
2022-08-18T18:19:02.832Z,8.88
2022-08-18T18:22:00.651Z,9.25
2022-08-18T18:24:31.554Z,8.20
2022-08-18T18:27:01.227Z,8.90
2022-08-18T18:29:38.105Z,8.43
2022-08-18T18:32:10.843Z,8.80
2022-08-18T18:34:46.938Z,8.65
2022-08-18T18:37:26.974Z,9.27
2022-08-18T18:40:00.329Z,8.67
2022-08-18T18:42:31.640Z,8.80
2022-08-18T18:45:02.509Z,9.38
2022-08-18T18:47:54.548Z,9.07
2022-08-18T18:50:31.114Z,8.77
2022-08-18T18:53:08.521Z,8.85
2022-08-18T18:55:40.252Z,9.23
2022-08-18T18:58:15.715Z,9.40
2022-08-18T19:00:54.173Z,8.43
2022-08-18T19:03:27.495Z,9.52
2022-08-18T19:06:10.039Z,9.32
2022-08-18T19:08:42.236Z,8.75
2022-08-18T19:11:18.053Z,9.07
2022-08-18T19:13:49.454Z,9.07
2022-08-18T20:35:41.131Z,10.80
2022-08-18T20:38:17.904Z,10.45
2022-08-18T20:40:48.481Z,10.25
2022-08-18T20:43:29.562Z,11.35
2022-08-18T20:46:21.111Z,10.20
2022-08-18T20:49:06.252Z,10.68
2022-08-18T20:51:42.818Z,10.63
2022-08-18T20:54:29.991Z,9.75
2022-08-18T20:57:02.331Z,10.30
2022-08-18T20:59:33.340Z,10.50
2022-08-18T21:02:04.614Z,10.38
2022-08-18T21:04:42.831Z,10.45
2022-08-18T21:07:35.879Z,10.32
2022-08-18T21:10:12.986Z,10.70
2022-08-18T21:12:52.057Z,9.98
2022-08-18T21:15:24.460Z,10.52
2022-08-18T21:18:00.543Z,10.55
2022-08-18T21:20:30.463Z,9.88
2022-08-18T21:23:08.406Z,10.17
2022-08-18T21:25:38.547Z,10.32
2022-08-18T21:28:08.463Z,9.55
2022-08-18T21:30:38.367Z,9.57
2022-08-18T21:33:21.253Z,10.37
2022-08-18T21:35:50.971Z,10.15
2022-08-18T21:38:32.726Z,10.15
2022-08-18T21:41:10.212Z,10.68
2022-08-18T21:43:49.246Z,10.43
2022-08-18T21:46:25.351Z,10.45
2022-08-18T21:48:56.584Z,10.35
2022-08-18T21:51:28.936Z,10.60
2022-08-18T21:54:01.522Z,10.02
2022-08-18T21:56:33.151Z,10.15
2022-08-18T21:59:11.808Z,10.35
2022-08-18T22:01:49.667Z,10.50
2022-08-18T22:04:24.363Z,10.13
2022-08-18T22:06:55.243Z,9.55
2022-08-18T22:12:39.638Z,9.60
2022-08-18T22:15:10.507Z,9.32
2022-08-18T22:20:53.777Z,9.90
2022-08-18T22:23:50.903Z,9.60
2022-08-18T22:26:26.711Z,9.57
2022-08-18T22:28:59.887Z,9.48
2022-08-18T22:31:30.994Z,9.75
2022-08-18T22:34:07.418Z,9.25
2022-08-18T22:36:40.055Z,9.93
2022-08-18T22:39:11.186Z,9.45
2022-08-18T22:41:46.314Z,10.18
2022-08-18T22:44:16.370Z,9.73
2022-08-18T22:46:46.219Z,10.10
2022-08-18T22:49:15.800Z,10.30
2022-08-18T22:51:45.486Z,9.57
2022-08-18T22:54:15.066Z,10.38
2022-08-18T22:56:54.092Z,10.48
2022-08-18T22:59:27.539Z,10.65
2022-08-18T23:01:58.310Z,10.50
2022-08-18T23:04:28.113Z,11.15
2022-08-18T23:06:59.083Z,10.68
2022-08-18T23:09:30.538Z,10.98
2022-08-18T23:12:05.230Z,11.18
2022-08-18T23:14:34.833Z,10.77
2022-08-18T23:17:05.325Z,10.73
2022-08-18T23:19:35.024Z,10.52
2022-08-18T23:22:05.082Z,10.70
2022-08-18T23:24:34.747Z,10.73
2022-08-18T23:27:08.805Z,11.02
2022-08-18T23:29:39.862Z,10.88
2022-08-18T23:32:09.901Z,11.23
2022-08-18T23:34:39.567Z,11.53
2022-08-18T23:37:09.715Z,11.27
2022-08-18T23:39:41.856Z,10.77
2022-08-18T23:42:16.586Z,10.85
2022-08-18T23:44:47.314Z,11.38
2022-08-18T23:47:21.160Z,11.57
2022-08-18T23:49:51.578Z,10.82
2022-08-18T23:52:21.417Z,11.32
2022-08-18T23:54:51.012Z,12.10
2022-08-18T23:57:23.167Z,11.13
2022-08-18T23:59:52.793Z,11.68
